Tropical Cyclones
[Index]
Main Index Home Page Stock Weather Photos Extreme Storms Discussion Storm News and Storm Chasing Reports Tropical Cyclones / Hurricanes / Typhoons Weather Data and Links Wild Fires / Bushfires Weather Observation Techniques Weather Picture Catalogue Tornado Pictures and Reports Stock Video Footage and DVDs for sale
Season 1984-1985 Tropical Cyclone 198501 Track Map
Season 1984-1985 Summaries: [BoM-AU] [JTWC-AU] [JTWC-SIO] [JTWC-SPAC] [JTWC-SH]
<<- Previous TC | JTWC 1984-1985 Season | Next TC ->>

click for intensity scale information  Lat/long Grid: Show Hide

 Date Labels: Show Hide

Joint Typhoon Warning Centre Cyclone Data

Name: 198501

09 Nov 1984 06:00 UTC to 17 Nov 1984 06:00 UTC

    date/time    lat    long     hPa   cat  kts
1984-11-09 06    7.7    80.9                  20          
1984-11-09 12    8.1    79.9                  20          
1984-11-09 18    8.5    78.8                  25          
1984-11-10 00    8.8    77.7                  25          
1984-11-10 06    9.0    76.6                  30          
1984-11-10 12    9.1    75.4                  30          
1984-11-10 18    9.3    74.2                  35          
1984-11-11 00    9.5    73.0            1     40          
1984-11-11 06    9.8    71.9            1     45          
1984-11-11 12   10.0    70.8            1     45          
1984-11-11 18   10.3    69.7            1     45          
1984-11-12 00   10.6    68.5            1     45          
1984-11-12 06   11.0    67.3            1     45          
1984-11-12 12   11.3    66.0            1     45          
1984-11-12 18   11.5    64.6            1     45          
1984-11-13 00   11.8    62.8            1     45          
1984-11-13 06   12.2    61.0            1     40          
1984-11-13 12   12.7    59.3            1     40          
1984-11-13 18   13.2    57.7                  35          
1984-11-14 00   13.7    56.4                  30          
1984-11-14 06   14.1    55.4                  30          
1984-11-14 12   14.5    54.5                  30          
1984-11-14 18   14.9    53.7                  30          
1984-11-15 00   15.2    53.0                  30          
1984-11-15 06   15.6    52.4                  30          
1984-11-15 12   16.1    51.9                  30          
1984-11-15 18   16.7    51.4                  25          
1984-11-16 00   17.2    51.0                  25          
1984-11-16 06   17.7    50.6                  25          
1984-11-16 12   18.1    50.3                  25          
1984-11-16 18   18.5    49.9                  25          
1984-11-17 00   18.8    49.6                  25          
1984-11-17 06   19.0    49.2                  25          
Winds are 1-min average.

Tropical cyclone tracks developed by Michael Bath using data from the Joint Typhoon Warning Centre Best Tracks and Google Maps.


[Australian Severe Weather index] [Copyright Notice] [Email Contacts] [Search This Site] [Privacy Policy]
Document: tropical_cyclone_198501.htm Updated: 18 September 2016